Time;durP1;ratioP1;P1;durP2;ratioP2;P2;SDS_P1;SDS_P2;PMS_P1;PMS_P2;Temp;Humidity;BMP_temperature;BMP_pressure;BME280_temperature;BME280_humidity;BME280_pressure;Samples;Min_cycle;Max_cycle;Signal;HPM_P1;HPM_P2
2022/09/14 00:00:11;;;;;;;40.37;26.23;;;18.00;99.90;;;;;;5047525;28;20950;-73
2022/09/14 00:02:39;;;;;;;33.73;25.23;;;18.00;99.90;;;;;;5041972;28;20871;-73
2022/09/14 00:05:06;;;;;;;40.10;27.40;;;18.00;99.90;;;;;;5050460;28;20471;-73
2022/09/14 00:07:33;;;;;;;39.83;27.43;;;18.00;99.90;;;;;;5045582;28;20436;-73
2022/09/14 00:09:59;;;;;;;37.13;25.37;;;18.00;99.90;;;;;;5035271;28;20581;-73
2022/09/14 00:12:26;;;;;;;41.77;27.27;;;18.00;99.90;;;;;;5037678;28;20445;-73
2022/09/14 00:14:53;;;;;;;45.90;26.90;;;18.00;99.90;;;;;;5042151;28;20449;-73
2022/09/14 00:17:19;;;;;;;44.10;27.67;;;18.00;99.90;;;;;;5040719;28;20490;-73
2022/09/14 00:19:47;;;;;;;40.00;27.47;;;18.00;99.90;;;;;;5042429;28;20958;-73
2022/09/14 00:22:14;;;;;;;40.50;26.90;;;18.00;99.90;;;;;;5036647;28;20457;-73
2022/09/14 00:24:41;;;;;;;40.30;27.33;;;18.00;99.90;;;;;;5042189;28;20485;-73
2022/09/14 00:27:07;;;;;;;44.23;27.07;;;18.00;99.90;;;;;;5038297;28;20472;-73
2022/09/14 00:29:34;;;;;;;44.70;26.43;;;18.00;99.90;;;;;;5040146;28;20965;-73
2022/09/14 00:32:01;;;;;;;58.20;30.43;;;18.00;99.90;;;;;;5043343;28;20466;-73
2022/09/14 00:34:27;;;;;;;44.60;27.50;;;18.00;99.90;;;;;;5043895;28;21011;-72
2022/09/14 00:36:55;;;;;;;46.57;27.67;;;18.00;99.90;;;;;;5042787;28;20945;-73
2022/09/14 00:39:24;;;;;;;38.23;26.80;;;18.00;99.90;;;;;;5044880;28;20490;-73
2022/09/14 00:41:52;;;;;;;46.33;27.37;;;18.00;99.90;;;;;;5042346;28;20425;-73
2022/09/14 00:44:58;;;;;;;39.07;26.87;;;18.00;99.90;;;;;;5042110;28;20542;-73
2022/09/14 00:47:25;;;;;;;45.83;25.07;;;18.00;99.90;;;;;;5044389;28;20795;-73
2022/09/14 00:49:52;;;;;;;47.63;26.77;;;17.90;99.90;;;;;;5044119;28;20449;-73
2022/09/14 00:52:23;;;;;;;42.17;27.73;;;17.90;99.90;;;;;;5047619;28;20428;-72
2022/09/14 00:54:52;;;;;;;53.90;30.07;;;17.80;99.90;;;;;;5042972;28;20491;-73
2022/09/14 00:57:21;;;;;;;53.83;29.83;;;17.80;99.90;;;;;;5042845;28;20440;-72
2022/09/14 00:59:50;;;;;;;56.23;31.77;;;17.80;99.90;;;;;;5036514;28;20472;-73
2022/09/14 01:02:18;;;;;;;52.33;31.13;;;17.70;99.90;;;;;;5038714;28;20443;-73
2022/09/14 01:04:46;;;;;;;54.60;31.97;;;17.70;99.90;;;;;;5039035;28;20552;-73
2022/09/14 01:07:26;;;;;;;54.70;33.07;;;17.60;99.90;;;;;;5042176;28;20491;-73
2022/09/14 01:10:01;;;;;;;55.53;31.70;;;17.60;99.90;;;;;;5037262;28;20429;-73
2022/09/14 01:12:38;;;;;;;60.73;34.37;;;17.50;99.90;;;;;;5042665;28;20457;-73
2022/09/14 01:15:15;;;;;;;58.77;33.60;;;17.60;99.90;;;;;;5039281;28;20661;-73
2022/09/14 01:17:50;;;;;;;60.90;33.33;;;17.50;99.90;;;;;;5041900;28;20436;-73
2022/09/14 01:20:25;;;;;;;60.77;33.87;;;17.50;99.90;;;;;;5043043;28;20423;-73
2022/09/14 01:23:02;;;;;;;50.70;31.97;;;17.50;99.90;;;;;;5047865;28;20459;-72
2022/09/14 01:26:00;;;;;;;53.23;30.47;;;17.50;99.90;;;;;;5041999;28;20462;-73
2022/09/14 01:28:32;;;;;;;53.10;30.87;;;17.60;99.90;;;;;;5035495;28;20478;-73
2022/09/14 01:31:07;;;;;;;54.30;30.23;;;17.50;99.90;;;;;;5043080;28;20478;-73
2022/09/14 01:33:39;;;;;;;51.37;29.47;;;17.50;99.90;;;;;;5045853;28;21048;-73
2022/09/14 01:36:09;;;;;;;49.80;28.40;;;17.50;99.90;;;;;;5046317;28;20490;-73
2022/09/14 01:38:41;;;;;;;53.53;27.53;;;17.50;99.90;;;;;;5041109;28;20424;-72
2022/09/14 01:41:12;;;;;;;47.70;26.07;;;17.50;99.90;;;;;;5033786;28;20964;-72
2022/09/14 01:43:43;;;;;;;46.00;25.37;;;17.50;99.90;;;;;;5040242;28;20903;-73
2022/09/14 01:46:13;;;;;;;42.43;22.20;;;17.50;99.90;;;;;;5049061;28;20457;-73
2022/09/14 01:48:44;;;;;;;34.00;20.23;;;17.50;99.90;;;;;;5041601;28;20650;-73
2022/09/14 01:51:16;;;;;;;29.90;19.73;;;17.40;99.90;;;;;;5034983;28;20523;-73
2022/09/14 01:53:47;;;;;;;29.00;17.90;;;17.40;99.90;;;;;;5044562;28;20448;-72
2022/09/14 01:56:19;;;;;;;31.27;16.10;;;17.40;99.90;;;;;;5035683;28;20949;-72
2022/09/14 01:58:51;;;;;;;26.27;14.23;;;17.40;99.90;;;;;;5042040;28;20434;-73
2022/09/14 02:01:22;;;;;;;25.60;14.60;;;17.40;99.90;;;;;;5038415;28;20421;-73
2022/09/14 02:03:52;;;;;;;20.90;12.03;;;17.50;99.90;;;;;;5038550;28;20551;-73
2022/09/14 02:06:25;;;;;;;28.07;12.30;;;17.50;99.90;;;;;;5037980;28;20453;-73
2022/09/14 02:08:52;;;;;;;22.80;11.37;;;17.50;99.90;;;;;;5034314;28;21038;-72
2022/09/14 02:11:19;;;;;;;18.23;9.40;;;17.50;99.90;;;;;;5039879;28;20841;-73
2022/09/14 02:13:47;;;;;;;13.77;10.03;;;17.60;99.90;;;;;;5041034;28;20435;-72
2022/09/14 02:16:14;;;;;;;13.40;10.30;;;17.60;99.90;;;;;;5041738;28;20509;-72
2022/09/14 02:18:42;;;;;;;17.70;9.80;;;17.70;99.90;;;;;;5043854;28;20953;-73
2022/09/14 02:21:14;;;;;;;19.60;9.87;;;17.70;99.90;;;;;;5041787;28;20454;-73
2022/09/14 02:23:41;;;;;;;16.83;9.97;;;17.70;99.90;;;;;;5045541;28;20562;-73
2022/09/14 02:26:08;;;;;;;17.43;11.27;;;17.70;99.90;;;;;;5032403;28;20768;-73
2022/09/14 02:28:34;;;;;;;16.00;11.47;;;17.80;99.90;;;;;;5034137;28;20504;-73
2022/09/14 02:31:13;;;;;;;16.00;11.70;;;17.80;99.90;;;;;;5038271;28;20451;-73
2022/09/14 02:33:45;;;;;;;20.33;12.50;;;17.80;99.90;;;;;;5045493;28;20460;-73
2022/09/14 02:36:17;;;;;;;30.50;13.57;;;17.80;99.90;;;;;;5049202;28;20507;-72
2022/09/14 02:38:52;;;;;;;20.23;13.53;;;17.80;99.90;;;;;;5034261;28;20512;-72
2022/09/14 02:41:25;;;;;;;23.40;14.90;;;17.80;99.90;;;;;;5035138;28;20436;-72
2022/09/14 02:43:59;;;;;;;27.47;15.00;;;17.80;99.90;;;;;;5041972;28;20460;-73
2022/09/14 02:46:35;;;;;;;23.17;15.00;;;17.80;99.90;;;;;;5039772;28;20425;-73
2022/09/14 02:49:09;;;;;;;30.83;15.17;;;17.70;99.90;;;;;;5045350;28;20421;-73
2022/09/14 02:51:45;;;;;;;27.83;16.40;;;17.70;99.90;;;;;;5038057;28;20493;-73
2022/09/14 02:54:16;;;;;;;24.20;16.40;;;17.70;99.90;;;;;;5035449;28;20448;-73
2022/09/14 02:56:43;;;;;;;26.97;16.07;;;17.70;99.90;;;;;;5033834;28;20524;-72
2022/09/14 02:59:10;;;;;;;26.73;16.10;;;17.70;99.90;;;;;;5041535;28;21009;-73
2022/09/14 03:01:39;;;;;;;23.73;14.93;;;17.70;99.90;;;;;;5042623;28;20450;-73
2022/09/14 03:04:06;;;;;;;29.17;15.80;;;17.80;99.90;;;;;;5041402;28;20496;-73
2022/09/14 03:06:32;;;;;;;26.53;16.40;;;17.80;99.90;;;;;;5043622;28;20485;-73
2022/09/14 03:08:59;;;;;;;23.80;15.97;;;17.80;99.90;;;;;;5039406;28;21036;-73
2022/09/14 03:11:26;;;;;;;31.13;16.13;;;17.80;99.90;;;;;;5039694;28;20456;-73
2022/09/14 03:13:52;;;;;;;29.93;18.23;;;17.80;99.90;;;;;;5042714;28;20465;-73
2022/09/14 03:16:19;;;;;;;35.93;20.20;;;17.80;99.90;;;;;;5036884;28;20495;-73
2022/09/14 03:18:47;;;;;;;46.97;21.60;;;17.70;99.90;;;;;;5041329;28;20424;-73
2022/09/14 03:21:16;;;;;;;43.27;20.97;;;17.70;99.90;;;;;;5042767;28;20503;-73
2022/09/14 03:23:44;;;;;;;42.23;21.73;;;17.70;99.90;;;;;;5038672;28;20465;-73
2022/09/14 03:26:13;;;;;;;37.07;20.03;;;17.70;99.90;;;;;;5040898;28;20853;-73
2022/09/14 03:28:41;;;;;;;32.07;20.50;;;17.60;99.90;;;;;;5040337;28;20437;-73
2022/09/14 03:31:09;;;;;;;36.00;21.00;;;17.60;99.90;;;;;;5040454;28;20897;-73
2022/09/14 03:33:36;;;;;;;41.97;23.03;;;17.60;99.90;;;;;;5038741;28;20516;-73
2022/09/14 03:36:11;;;;;;;42.20;22.17;;;17.60;99.90;;;;;;5039821;28;20458;-73
2022/09/14 03:38:38;;;;;;;43.67;23.67;;;17.60;99.90;;;;;;5042974;28;20426;-73
2022/09/14 03:41:08;;;;;;;41.40;24.07;;;17.60;99.90;;;;;;5041800;28;20857;-73
2022/09/14 03:43:35;;;;;;;42.43;26.17;;;17.60;99.90;;;;;;5042020;28;20443;-73
2022/09/14 03:46:05;;;;;;;54.17;26.80;;;17.60;99.90;;;;;;5035458;28;20510;-73
2022/09/14 03:48:32;;;;;;;50.70;26.70;;;17.60;99.90;;;;;;5038642;28;20457;-73
2022/09/14 03:51:01;;;;;;;42.73;26.87;;;17.70;99.90;;;;;;5040173;28;20477;-73
2022/09/14 03:53:29;;;;;;;44.50;25.30;;;17.70;99.90;;;;;;5043856;28;20469;-73
2022/09/14 03:55:56;;;;;;;47.17;27.00;;;17.70;99.90;;;;;;5040237;28;20421;-73
2022/09/14 03:58:22;;;;;;;45.13;27.83;;;17.70;99.90;;;;;;5040034;28;20459;-73
2022/09/14 04:00:50;;;;;;;51.13;28.70;;;17.70;99.90;;;;;;5040554;28;20449;-73
2022/09/14 04:03:16;;;;;;;49.73;28.20;;;17.60;99.90;;;;;;5044451;28;20447;-73
2022/09/14 04:05:44;;;;;;;52.77;30.53;;;17.60;99.90;;;;;;5044918;28;20485;-74
2022/09/14 04:08:10;;;;;;;52.57;29.27;;;17.50;99.90;;;;;;5044538;28;20466;-74
2022/09/14 04:10:40;;;;;;;53.43;30.80;;;17.50;99.90;;;;;;5038723;28;21003;-74
2022/09/14 04:13:07;;;;;;;58.10;32.90;;;17.50;99.90;;;;;;5035520;28;20468;-73
2022/09/14 04:15:33;;;;;;;57.20;33.40;;;17.50;99.90;;;;;;5034538;28;20493;-73
2022/09/14 04:18:00;;;;;;;60.70;33.97;;;17.40;99.90;;;;;;5037374;28;20482;-74
2022/09/14 04:20:26;;;;;;;63.67;35.83;;;17.40;99.90;;;;;;5034614;28;20458;-74
2022/09/14 04:22:53;;;;;;;70.17;39.03;;;17.40;99.90;;;;;;5038729;28;20448;-74
2022/09/14 04:25:22;;;;;;;69.00;36.73;;;17.30;99.90;;;;;;5042899;28;20493;-74
2022/09/14 04:27:50;;;;;;;65.50;37.80;;;17.30;99.90;;;;;;5041619;28;20497;-74
2022/09/14 04:30:16;;;;;;;66.73;36.60;;;17.30;99.90;;;;;;5040910;28;20498;-74
2022/09/14 04:32:43;;;;;;;60.30;34.50;;;17.30;99.90;;;;;;5037858;28;20429;-74
2022/09/14 04:35:10;;;;;;;57.13;35.07;;;17.30;99.90;;;;;;5037579;28;20567;-74
2022/09/14 04:37:36;;;;;;;60.33;35.90;;;17.30;99.90;;;;;;5038149;28;20449;-74
2022/09/14 04:40:03;;;;;;;55.87;32.53;;;17.30;99.90;;;;;;5041703;28;20853;-74
2022/09/14 04:42:30;;;;;;;53.90;32.63;;;17.30;99.90;;;;;;5042503;28;20954;-73
2022/09/14 04:44:58;;;;;;;50.93;33.10;;;17.30;99.90;;;;;;5043171;28;20477;-74
2022/09/14 04:47:25;;;;;;;57.43;32.10;;;17.30;99.90;;;;;;5042833;28;20532;-74
2022/09/14 04:49:51;;;;;;;58.10;30.50;;;17.30;99.90;;;;;;5042778;28;20424;-75
2022/09/14 04:52:18;;;;;;;59.10;31.30;;;17.30;99.90;;;;;;5039972;28;20433;-75
2022/09/14 04:54:45;;;;;;;56.50;31.30;;;17.30;99.90;;;;;;5045502;28;20472;-76
2022/09/14 04:57:12;;;;;;;61.07;32.50;;;17.30;99.90;;;;;;5040372;28;20461;-73
2022/09/14 04:59:38;;;;;;;55.30;31.37;;;17.20;99.90;;;;;;5036591;28;20477;-74
2022/09/14 05:02:06;;;;;;;51.27;29.77;;;17.20;99.90;;;;;;5041660;28;20457;-74
2022/09/14 05:04:33;;;;;;;34.87;25.40;;;17.20;99.90;;;;;;5040051;28;21054;-74
2022/09/14 05:07:00;;;;;;;34.90;24.70;;;17.20;99.90;;;;;;5039435;28;20486;-74
2022/09/14 05:09:27;;;;;;;45.30;25.57;;;17.20;99.90;;;;;;5052062;28;20602;-74
2022/09/14 05:11:53;;;;;;;33.63;23.47;;;17.20;99.90;;;;;;5053256;28;20424;-74
2022/09/14 05:14:20;;;;;;;35.70;24.80;;;17.10;99.90;;;;;;5053140;28;20917;-76
2022/09/14 05:16:46;;;;;;;32.63;23.10;;;17.10;99.90;;;;;;5040884;28;20428;-76
2022/09/14 05:19:17;;;;;;;36.83;24.40;;;17.10;99.90;;;;;;5047901;28;20432;-76
2022/09/14 05:21:44;;;;;;;34.20;24.20;;;17.10;99.90;;;;;;5043859;28;20458;-74
2022/09/14 05:24:13;;;;;;;36.77;25.47;;;17.10;99.90;;;;;;5047139;28;20967;-74
2022/09/14 05:26:41;;;;;;;38.33;25.50;;;17.10;99.90;;;;;;5038026;28;20477;-74
2022/09/14 05:29:12;;;;;;;42.30;27.17;;;17.00;99.90;;;;;;5039034;28;20850;-74
2022/09/14 05:31:38;;;;;;;49.17;28.00;;;17.00;99.90;;;;;;5039619;28;20501;-74
2022/09/14 05:34:05;;;;;;;45.37;25.50;;;17.00;99.90;;;;;;5040213;28;20450;-75
2022/09/14 05:36:35;;;;;;;48.77;25.63;;;17.00;99.90;;;;;;5040442;28;20420;-75
2022/09/14 05:39:02;;;;;;;49.07;27.30;;;17.00;99.90;;;;;;5037149;28;20446;-75
2022/09/14 05:41:28;;;;;;;51.17;27.30;;;17.00;99.90;;;;;;5044603;28;20839;-76
2022/09/14 05:43:55;;;;;;;49.90;28.03;;;17.00;99.90;;;;;;5036288;28;20515;-76
2022/09/14 05:46:21;;;;;;;48.97;27.60;;;17.00;99.90;;;;;;5044261;28;20533;-75
2022/09/14 05:48:50;;;;;;;57.50;29.70;;;16.90;99.90;;;;;;5040236;28;20432;-74
2022/09/14 05:51:19;;;;;;;52.27;28.07;;;16.90;99.90;;;;;;5035123;28;20432;-75
2022/09/14 05:53:49;;;;;;;49.73;26.70;;;16.90;99.90;;;;;;5046701;28;20531;-75
2022/09/14 05:56:17;;;;;;;49.73;27.53;;;16.90;99.90;;;;;;5043385;28;20478;-74
2022/09/14 05:58:44;;;;;;;44.60;24.63;;;16.90;99.90;;;;;;5035881;28;20428;-74
2022/09/14 06:01:12;;;;;;;46.50;25.97;;;16.90;99.90;;;;;;5034981;28;20581;-76
2022/09/14 06:03:39;;;;;;;48.70;26.50;;;16.90;99.90;;;;;;5040503;28;20444;-76
2022/09/14 06:06:08;;;;;;;48.57;26.23;;;16.90;99.90;;;;;;5037097;28;20527;-76
2022/09/14 06:08:35;;;;;;;47.13;24.97;;;16.90;99.90;;;;;;5037460;28;20466;-75
2022/09/14 06:11:05;;;;;;;42.43;23.67;;;16.90;99.90;;;;;;5041963;28;20428;-75
2022/09/14 06:13:31;;;;;;;38.20;21.60;;;16.90;99.90;;;;;;5041735;28;20851;-75
2022/09/14 06:16:01;;;;;;;43.07;22.63;;;16.90;99.90;;;;;;5040388;28;20423;-74
2022/09/14 06:18:30;;;;;;;40.43;22.67;;;16.90;99.90;;;;;;5037875;28;20424;-75
2022/09/14 06:20:56;;;;;;;39.20;21.73;;;16.90;99.90;;;;;;5039949;28;20428;-75
2022/09/14 06:23:23;;;;;;;34.67;21.07;;;16.90;99.90;;;;;;5036656;28;20448;-76
2022/09/14 06:25:52;;;;;;;36.60;20.70;;;16.90;99.90;;;;;;5050368;28;21223;-76
2022/09/14 06:28:20;;;;;;;34.60;20.33;;;16.90;99.90;;;;;;5036819;28;20475;-75
2022/09/14 06:30:48;;;;;;;39.73;21.47;;;16.90;99.90;;;;;;5031240;28;20429;-76
2022/09/14 06:33:15;;;;;;;37.37;20.67;;;16.90;99.90;;;;;;5045232;28;20476;-75
2022/09/14 06:35:41;;;;;;;39.30;21.80;;;16.90;99.90;;;;;;5051027;28;20431;-75
2022/09/14 06:38:08;;;;;;;39.13;20.77;;;16.90;99.90;;;;;;5033611;28;20450;-75
2022/09/14 06:40:35;;;;;;;31.97;18.93;;;16.90;99.90;;;;;;5044950;28;20424;-76
2022/09/14 06:43:02;;;;;;;36.87;20.03;;;16.90;99.90;;;;;;5032239;28;20456;-75
2022/09/14 06:45:31;;;;;;;38.50;20.23;;;16.90;99.90;;;;;;5031928;28;20486;-75
2022/09/14 06:47:58;;;;;;;34.90;21.23;;;16.90;99.90;;;;;;5034966;28;20432;-76
2022/09/14 06:50:25;;;;;;;35.80;19.43;;;17.00;99.90;;;;;;5036649;28;21006;-74
2022/09/14 06:52:52;;;;;;;34.53;18.33;;;17.00;99.90;;;;;;5031899;28;20452;-75
2022/09/14 06:55:19;;;;;;;37.30;19.63;;;17.10;99.90;;;;;;5049577;28;20572;-75
2022/09/14 06:57:48;;;;;;;32.60;17.37;;;17.00;99.90;;;;;;5046757;28;20500;-75
2022/09/14 07:00:15;;;;;;;34.10;18.93;;;17.10;99.90;;;;;;5031615;28;20549;-76
2022/09/14 07:02:43;;;;;;;35.70;18.20;;;17.10;99.90;;;;;;5037503;28;20474;-75
2022/09/14 07:05:09;;;;;;;26.87;16.37;;;17.10;99.90;;;;;;5032391;28;20555;-75
2022/09/14 07:07:36;;;;;;;30.13;17.20;;;17.10;99.90;;;;;;5046735;28;20834;-76
2022/09/14 07:10:03;;;;;;;29.00;16.07;;;17.10;99.90;;;;;;5039511;28;20471;-76
2022/09/14 07:12:30;;;;;;;29.97;17.57;;;17.20;99.90;;;;;;5031480;28;20450;-76
2022/09/14 07:14:56;;;;;;;26.93;16.27;;;17.20;99.90;;;;;;5039417;28;20428;-76
2022/09/14 07:17:23;;;;;;;27.50;15.67;;;17.20;99.90;;;;;;5043164;28;20424;-76
2022/09/14 07:19:51;;;;;;;28.50;16.87;;;17.20;99.90;;;;;;5050424;28;20482;-76
2022/09/14 07:22:17;;;;;;;32.03;14.93;;;17.20;99.90;;;;;;5048917;28;20461;-76
2022/09/14 07:24:44;;;;;;;27.33;16.47;;;17.20;99.90;;;;;;5050509;28;20505;-76
2022/09/14 07:27:11;;;;;;;26.50;16.17;;;17.20;99.90;;;;;;5046964;28;20458;-76
2022/09/14 07:29:37;;;;;;;29.83;16.63;;;17.20;99.90;;;;;;5045590;28;20490;-75
2022/09/14 07:32:04;;;;;;;26.40;16.20;;;17.20;99.90;;;;;;5043811;28;21158;-75
2022/09/14 07:34:30;;;;;;;28.73;16.17;;;17.40;99.90;;;;;;5033515;28;20453;-75
2022/09/14 07:36:58;;;;;;;26.40;15.27;;;17.30;99.90;;;;;;5050834;28;20496;-76
2022/09/14 07:39:25;;;;;;;24.57;15.27;;;17.40;99.90;;;;;;5039325;28;20436;-75
2022/09/14 07:41:52;;;;;;;35.20;16.17;;;17.40;99.90;;;;;;5031447;28;20475;-75
2022/09/14 07:44:19;;;;;;;25.30;15.10;;;17.50;99.90;;;;;;5035393;28;20517;-77
2022/09/14 07:46:46;;;;;;;24.33;14.73;;;17.50;99.90;;;;;;5050119;28;20466;-75
2022/09/14 07:49:14;;;;;;;20.90;13.13;;;17.50;99.90;;;;;;5043626;28;20883;-75
2022/09/14 07:51:41;;;;;;;20.00;13.30;;;17.50;99.90;;;;;;5046201;28;20421;-75
2022/09/14 07:54:12;;;;;;;20.00;12.07;;;17.50;99.90;;;;;;5041611;28;20468;-76
2022/09/14 07:56:39;;;;;;;20.93;12.90;;;17.50;99.90;;;;;;5047699;28;20446;-75
2022/09/14 07:59:06;;;;;;;23.07;13.67;;;17.50;99.90;;;;;;5035810;28;20429;-75
2022/09/14 08:01:33;;;;;;;18.23;12.40;;;17.60;99.90;;;;;;5045935;28;20431;-76
2022/09/14 08:04:02;;;;;;;16.70;11.67;;;17.60;99.90;;;;;;5035822;28;20539;-74
2022/09/14 08:06:30;;;;;;;19.57;11.93;;;17.60;99.90;;;;;;5037862;28;20538;-75
2022/09/14 08:08:57;;;;;;;14.77;11.40;;;17.60;99.90;;;;;;5043234;28;20542;-75
2022/09/14 08:11:27;;;;;;;16.67;11.43;;;17.70;99.90;;;;;;5035388;28;20425;-75
2022/09/14 08:13:56;;;;;;;15.93;9.90;;;17.70;99.90;;;;;;5036943;28;20834;-75
2022/09/14 08:16:24;;;;;;;12.23;7.90;;;17.70;99.90;;;;;;5036826;28;20416;-75
2022/09/14 08:18:54;;;;;;;8.83;7.93;;;17.70;99.90;;;;;;5052872;28;21005;-75
2022/09/14 08:21:21;;;;;;;12.30;8.43;;;17.70;99.90;;;;;;5053727;28;20428;-75
2022/09/14 08:23:48;;;;;;;10.90;8.33;;;17.80;99.90;;;;;;5047269;28;20521;-76
2022/09/14 08:26:16;;;;;;;13.40;8.10;;;17.90;99.90;;;;;;5040438;28;20867;-75
2022/09/14 08:28:44;;;;;;;13.43;7.70;;;17.90;99.90;;;;;;5041248;28;20433;-75
2022/09/14 08:31:13;;;;;;;8.90;7.40;;;18.00;99.90;;;;;;5046006;28;20446;-75
2022/09/14 08:33:42;;;;;;;12.10;8.57;;;18.00;99.90;;;;;;5041883;28;20494;-76
2022/09/14 08:36:10;;;;;;;9.67;8.20;;;18.00;99.90;;;;;;5052897;28;20446;-77
2022/09/14 08:38:38;;;;;;;8.47;7.60;;;18.00;99.90;;;;;;5056505;28;20469;-75
2022/09/14 08:41:11;;;;;;;9.57;8.23;;;18.00;99.90;;;;;;5038421;28;20990;-75
2022/09/14 08:43:38;;;;;;;9.87;7.43;;;18.00;99.90;;;;;;5053175;28;20477;-75
2022/09/14 08:46:13;;;;;;;12.37;7.37;;;18.00;99.90;;;;;;5044192;28;20455;-76
2022/09/14 08:48:46;;;;;;;11.07;6.73;;;18.00;99.90;;;;;;5047764;28;20432;-75
2022/09/14 08:51:12;;;;;;;9.23;8.23;;;18.00;99.90;;;;;;5044754;28;20421;-75
2022/09/14 08:53:41;;;;;;;10.80;8.40;;;18.00;99.90;;;;;;5054150;28;20443;-76
2022/09/14 08:56:13;;;;;;;15.90;9.00;;;18.00;99.90;;;;;;5053529;28;20450;-75
2022/09/14 08:59:08;;;;;;;13.33;9.00;;;18.00;99.90;;;;;;5033662;28;20421;-75
2022/09/14 09:01:44;;;;;;;14.47;10.37;;;18.00;99.90;;;;;;5032845;28;20940;-75
2022/09/14 09:04:24;;;;;;;9.83;8.50;;;18.00;99.90;;;;;;5041439;28;20452;-75
2022/09/14 09:06:58;;;;;;;18.77;9.23;;;18.00;99.90;;;;;;5033390;28;20530;-77
2022/09/14 09:09:30;;;;;;;10.47;8.27;;;17.90;99.90;;;;;;5038060;28;20432;-76
2022/09/14 09:11:57;;;;;;;12.87;9.10;;;17.90;99.90;;;;;;5045238;28;20433;-76
2022/09/14 09:14:29;;;;;;;13.47;9.90;;;17.90;99.90;;;;;;5035550;28;20444;-76
2022/09/14 09:17:01;;;;;;;13.40;8.63;;;17.90;99.90;;;;;;5033077;28;20477;-76
2022/09/14 09:19:32;;;;;;;10.40;9.10;;;17.90;99.90;;;;;;5039665;28;20439;-77
2022/09/14 09:22:02;;;;;;;11.00;9.90;;;17.90;99.90;;;;;;5050508;28;20429;-76
2022/09/14 09:24:34;;;;;;;11.77;10.60;;;17.90;99.90;;;;;;5048071;28;21040;-75
2022/09/14 09:27:01;;;;;;;12.73;10.97;;;18.00;99.90;;;;;;5032315;28;20889;-76
2022/09/14 09:29:27;;;;;;;13.10;11.00;;;18.10;99.90;;;;;;5040439;28;20490;-75
2022/09/14 09:31:58;;;;;;;16.90;12.20;;;18.00;99.90;;;;;;5044394;28;20429;-76
2022/09/14 09:34:27;;;;;;;18.73;12.10;;;18.10;99.90;;;;;;5044379;28;20482;-75
2022/09/14 09:36:55;;;;;;;14.20;12.70;;;18.10;99.90;;;;;;5051704;28;20500;-76
2022/09/14 09:39:24;;;;;;;17.40;14.07;;;18.10;99.90;;;;;;5032590;28;20521;-76
2022/09/14 09:41:56;;;;;;;23.53;15.73;;;18.10;99.90;;;;;;5032949;28;20436;-76
2022/09/14 09:44:23;;;;;;;20.60;16.10;;;18.00;99.90;;;;;;5042811;28;21044;-77
2022/09/14 09:46:53;;;;;;;21.50;16.30;;;17.90;99.90;;;;;;5052401;28;20456;-77
2022/09/14 09:49:24;;;;;;;21.40;17.13;;;17.90;99.90;;;;;;5043025;28;20437;-77
2022/09/14 09:51:52;;;;;;;24.80;17.90;;;17.90;99.90;;;;;;5036093;28;20679;-76
2022/09/14 09:54:28;;;;;;;28.90;18.33;;;17.90;99.90;;;;;;5050806;28;20451;-77
2022/09/14 09:56:57;;;;;;;25.77;18.90;;;17.90;99.90;;;;;;5051629;28;20825;-77
2022/09/14 09:59:30;;;;;;;26.47;20.87;;;17.90;99.90;;;;;;5051751;28;20461;-77
2022/09/14 10:02:14;;;;;;;26.80;19.30;;;17.90;99.90;;;;;;5052211;28;20485;-77
2022/09/14 10:04:57;;;;;;;25.40;19.63;;;17.90;99.90;;;;;;5032607;28;20440;-77
2022/09/14 10:07:24;;;;;;;28.90;19.67;;;17.90;99.90;;;;;;5046761;28;20887;-76
2022/09/14 10:09:58;;;;;;;27.23;19.83;;;17.90;99.90;;;;;;5037522;28;20485;-76
2022/09/14 10:12:25;;;;;;;28.40;21.37;;;18.00;99.90;;;;;;5032855;28;20588;-77
2022/09/14 10:15:06;;;;;;;29.40;20.10;;;18.00;99.90;;;;;;5032899;28;20448;-76
2022/09/14 10:17:33;;;;;;;30.53;20.87;;;18.10;99.90;;;;;;5040162;28;20420;-77
2022/09/14 10:20:03;;;;;;;26.60;21.10;;;18.10;99.90;;;;;;5032708;28;20505;-76
2022/09/14 10:22:31;;;;;;;27.40;21.07;;;18.10;99.90;;;;;;5043128;28;20433;-77
2022/09/14 10:25:00;;;;;;;26.57;21.17;;;18.20;99.90;;;;;;5033451;28;20847;-77
2022/09/14 10:27:38;;;;;;;32.67;20.33;;;18.20;99.90;;;;;;5036107;28;22113;-77
2022/09/14 10:30:08;;;;;;;23.53;19.00;;;18.30;99.90;;;;;;5045611;28;20965;-76
2022/09/14 10:32:36;;;;;;;23.43;18.40;;;18.30;99.90;;;;;;5043523;28;20428;-76
2022/09/14 10:35:12;;;;;;;20.40;17.23;;;18.30;99.90;;;;;;5041588;28;20421;-76
2022/09/14 10:37:52;;;;;;;21.70;16.53;;;18.30;99.90;;;;;;5034203;28;20448;-76
2022/09/14 10:40:22;;;;;;;17.87;15.80;;;18.30;99.90;;;;;;5051266;28;20431;-77
2022/09/14 10:43:01;;;;;;;20.07;16.47;;;18.40;99.90;;;;;;5049112;28;20463;-77
2022/09/14 10:45:30;;;;;;;21.93;17.53;;;18.50;99.90;;;;;;5031890;28;20479;-76
2022/09/14 10:48:22;;;;;;;22.07;18.63;;;18.50;99.90;;;;;;5038019;28;20484;-76
2022/09/14 10:50:57;;;;;;;23.97;18.67;;;18.60;99.90;;;;;;5032148;28;20432;-76
2022/09/14 10:53:35;;;;;;;25.30;19.43;;;18.70;99.90;;;;;;5032017;28;20449;-76
2022/09/14 10:56:04;;;;;;;23.53;16.23;;;18.80;99.90;;;;;;5038051;28;20445;-76
2022/09/14 10:58:53;;;;;;;24.93;17.80;;;18.90;99.90;;;;;;5050702;28;20455;-76
2022/09/14 11:01:31;;;;;;;22.87;18.17;;;18.90;99.90;;;;;;5051074;28;20472;-77
2022/09/14 11:04:09;;;;;;;27.73;18.50;;;18.90;99.90;;;;;;5037106;28;20759;-76
2022/09/14 11:06:46;;;;;;;22.10;16.60;;;19.00;99.90;;;;;;5041201;28;21336;-76
2022/09/14 11:09:20;;;;;;;24.40;18.40;;;19.00;99.90;;;;;;5039193;28;20966;-76
2022/09/14 11:11:57;;;;;;;23.30;17.60;;;19.10;99.90;;;;;;5031735;28;20454;-76
2022/09/14 11:14:37;;;;;;;23.50;17.40;;;19.20;99.90;;;;;;5031718;28;20474;-76
2022/09/14 11:17:20;;;;;;;24.57;16.23;;;19.30;99.90;;;;;;5046273;28;20489;-76
2022/09/14 11:19:56;;;;;;;19.63;15.40;;;19.40;99.90;;;;;;5051151;28;20453;-76
2022/09/14 11:22:33;;;;;;;17.10;14.60;;;19.40;99.90;;;;;;5040838;28;20544;-77
2022/09/14 11:25:06;;;;;;;19.17;15.10;;;19.40;99.90;;;;;;5034942;28;20454;-76
2022/09/14 11:27:39;;;;;;;17.07;13.73;;;19.40;99.90;;;;;;5031650;28;20482;-76
2022/09/14 11:30:12;;;;;;;21.40;13.60;;;19.40;99.90;;;;;;5031636;28;20507;-76
2022/09/14 11:32:44;;;;;;;24.33;15.27;;;19.30;99.90;;;;;;5031728;28;20458;-76
2022/09/14 11:35:16;;;;;;;21.03;15.63;;;19.30;99.90;;;;;;5033970;28;20420;-76
2022/09/14 11:37:49;;;;;;;21.00;13.80;;;19.30;99.90;;;;;;5032641;28;20921;-76
2022/09/14 11:40:21;;;;;;;16.10;13.80;;;19.20;99.90;;;;;;5050563;28;20427;-76
2022/09/14 11:42:55;;;;;;;22.70;14.17;;;19.20;99.90;;;;;;5049712;28;20454;-76
2022/09/14 11:45:26;;;;;;;19.57;15.93;;;19.20;99.90;;;;;;5050731;28;20463;-76
2022/09/14 11:47:59;;;;;;;21.10;14.57;;;19.20;99.90;;;;;;5034519;28;20489;-76
2022/09/14 11:50:29;;;;;;;20.33;17.40;;;19.20;99.90;;;;;;5044065;28;20487;-76
2022/09/14 11:53:04;;;;;;;24.47;17.77;;;19.20;99.90;;;;;;5035969;28;20473;-76
2022/09/14 11:55:31;;;;;;;22.87;18.17;;;19.20;99.90;;;;;;5041087;28;20824;-76
2022/09/14 11:57:58;;;;;;;24.23;17.47;;;19.20;99.90;;;;;;5046785;28;20457;-74
2022/09/14 12:00:58;;;;;;;19.90;16.47;;;19.20;99.90;;;;;;5053957;28;20463;-76
2022/09/14 12:03:46;;;;;;;21.90;17.10;;;19.20;99.90;;;;;;5038564;28;20477;-76
2022/09/14 12:06:42;;;;;;;25.63;17.33;;;19.20;99.90;;;;;;5046961;28;20453;-76
2022/09/14 12:09:49;;;;;;;22.90;17.10;;;19.20;99.90;;;;;;5044144;28;20449;-76
2022/09/14 12:12:34;;;;;;;24.00;17.17;;;19.20;99.90;;;;;;5047413;28;20464;-76
2022/09/14 12:15:03;;;;;;;24.57;17.07;;;19.30;99.90;;;;;;5044151;28;20450;-76
2022/09/14 12:17:34;;;;;;;22.60;16.27;;;19.30;99.90;;;;;;5040495;28;20453;-76
2022/09/14 12:20:30;;;;;;;24.30;18.33;;;19.40;99.90;;;;;;5051968;28;20424;-76
2022/09/14 12:23:17;;;;;;;20.40;17.00;;;19.50;99.90;;;;;;5045489;28;20489;-76
2022/09/14 12:25:58;;;;;;;21.90;18.40;;;19.50;99.90;;;;;;5050559;28;20456;-76
2022/09/14 12:28:42;;;;;;;21.93;17.80;;;19.50;99.90;;;;;;5047174;28;20502;-75
2022/09/14 12:31:12;;;;;;;26.10;18.70;;;19.50;99.90;;;;;;5042656;28;20458;-76
2022/09/14 12:34:24;;;;;;;26.23;19.40;;;19.60;99.90;;;;;;5034569;28;20520;-75
2022/09/14 12:37:29;;;;;;;21.43;17.00;;;19.60;99.90;;;;;;5049288;28;20528;-76
2022/09/14 12:40:32;;;;;;;22.73;16.93;;;19.60;99.90;;;;;;5012945;28;20446;-76
2022/09/14 12:43:47;;;;;;;21.50;17.67;;;19.50;99.90;;;;;;5034341;28;20478;-76
2022/09/14 12:46:38;;;;;;;23.40;18.97;;;19.50;99.90;;;;;;5045431;28;21015;-77